sensor_id;sensor_type;location;lat;lon;timestamp;temperature;humidity
24146;DHT22;12308;50.948;4.706;2022-11-20T00:01:50;5.50;99.90
24146;DHT22;12308;50.948;4.706;2022-11-20T00:04:16;5.40;99.90
24146;DHT22;12308;50.948;4.706;2022-11-20T00:06:41;5.30;99.90
24146;DHT22;12308;50.948;4.706;2022-11-20T00:09:10;5.30;99.90
24146;DHT22;12308;50.948;4.706;2022-11-20T00:11:35;5.30;99.90
24146;DHT22;12308;50.948;4.706;2022-11-20T00:14:02;5.20;99.90
24146;DHT22;12308;50.948;4.706;2022-11-20T00:16:30;5.30;99.90
24146;DHT22;12308;50.948;4.706;2022-11-20T00:18:56;5.50;99.90
24146;DHT22;12308;50.948;4.706;2022-11-20T00:21:24;5.50;99.90
24146;DHT22;12308;50.948;4.706;2022-11-20T00:23:51;5.50;99.90
24146;DHT22;12308;50.948;4.706;2022-11-20T00:26:18;5.50;99.90
24146;DHT22;12308;50.948;4.706;2022-11-20T00:28:49;5.50;99.90
24146;DHT22;12308;50.948;4.706;2022-11-20T00:31:16;5.40;99.90
24146;DHT22;12308;50.948;4.706;2022-11-20T00:33:42;5.50;99.90
24146;DHT22;12308;50.948;4.706;2022-11-20T00:36:11;5.60;99.90
24146;DHT22;12308;50.948;4.706;2022-11-20T00:38:37;5.60;99.90
24146;DHT22;12308;50.948;4.706;2022-11-20T00:41:05;5.60;99.90
24146;DHT22;12308;50.948;4.706;2022-11-20T00:43:32;5.40;99.90
24146;DHT22;12308;50.948;4.706;2022-11-20T00:46:03;5.50;99.90
24146;DHT22;12308;50.948;4.706;2022-11-20T00:48:29;5.60;99.90
24146;DHT22;12308;50.948;4.706;2022-11-20T00:50:55;5.70;99.90
24146;DHT22;12308;50.948;4.706;2022-11-20T00:53:21;5.70;99.90
24146;DHT22;12308;50.948;4.706;2022-11-20T00:56:01;5.80;99.90
24146;DHT22;12308;50.948;4.706;2022-11-20T00:58:35;5.80;99.90
24146;DHT22;12308;50.948;4.706;2022-11-20T01:01:22;5.60;99.90
24146;DHT22;12308;50.948;4.706;2022-11-20T01:03:50;5.70;99.90
24146;DHT22;12308;50.948;4.706;2022-11-20T01:06:19;5.80;99.90
24146;DHT22;12308;50.948;4.706;2022-11-20T01:08:45;5.80;99.90
24146;DHT22;12308;50.948;4.706;2022-11-20T01:11:17;5.70;99.90
24146;DHT22;12308;50.948;4.706;2022-11-20T01:13:45;5.70;99.90
24146;DHT22;12308;50.948;4.706;2022-11-20T01:16:18;5.70;99.90
24146;DHT22;12308;50.948;4.706;2022-11-20T01:18:46;5.60;99.90
24146;DHT22;12308;50.948;4.706;2022-11-20T01:21:15;5.60;99.90
24146;DHT22;12308;50.948;4.706;2022-11-20T01:23:42;5.90;99.90
24146;DHT22;12308;50.948;4.706;2022-11-20T01:26:14;5.90;99.90
24146;DHT22;12308;50.948;4.706;2022-11-20T01:28:40;6.10;99.90
24146;DHT22;12308;50.948;4.706;2022-11-20T01:33:40;5.80;99.90
24146;DHT22;12308;50.948;4.706;2022-11-20T01:36:07;5.70;99.90
24146;DHT22;12308;50.948;4.706;2022-11-20T01:38:33;5.60;99.90
24146;DHT22;12308;50.948;4.706;2022-11-20T01:40:59;5.50;99.90
24146;DHT22;12308;50.948;4.706;2022-11-20T01:43:25;5.60;99.90
24146;DHT22;12308;50.948;4.706;2022-11-20T01:46:02;5.60;99.90
24146;DHT22;12308;50.948;4.706;2022-11-20T01:51:33;5.60;99.90
24146;DHT22;12308;50.948;4.706;2022-11-20T01:54:04;5.50;99.90
24146;DHT22;12308;50.948;4.706;2022-11-20T01:56:33;5.60;99.90
24146;DHT22;12308;50.948;4.706;2022-11-20T01:59:02;5.70;99.90
24146;DHT22;12308;50.948;4.706;2022-11-20T02:01:29;5.80;99.90
24146;DHT22;12308;50.948;4.706;2022-11-20T02:03:56;5.70;99.90
24146;DHT22;12308;50.948;4.706;2022-11-20T02:09:06;5.70;99.90
24146;DHT22;12308;50.948;4.706;2022-11-20T02:11:31;5.80;99.90
24146;DHT22;12308;50.948;4.706;2022-11-20T02:13:58;5.80;99.90
24146;DHT22;12308;50.948;4.706;2022-11-20T02:16:27;5.60;99.90
24146;DHT22;12308;50.948;4.706;2022-11-20T02:18:55;5.60;99.90
24146;DHT22;12308;50.948;4.706;2022-11-20T02:21:34;5.60;99.90
24146;DHT22;12308;50.948;4.706;2022-11-20T02:24:21;5.50;99.90
24146;DHT22;12308;50.948;4.706;2022-11-20T02:27:03;5.60;99.90
24146;DHT22;12308;50.948;4.706;2022-11-20T02:32:29;5.60;99.90
24146;DHT22;12308;50.948;4.706;2022-11-20T02:34:56;5.60;99.90
24146;DHT22;12308;50.948;4.706;2022-11-20T02:37:23;5.50;99.90
24146;DHT22;12308;50.948;4.706;2022-11-20T02:39:52;5.60;99.90
24146;DHT22;12308;50.948;4.706;2022-11-20T02:42:18;5.60;99.90
24146;DHT22;12308;50.948;4.706;2022-11-20T02:44:43;5.50;99.90
24146;DHT22;12308;50.948;4.706;2022-11-20T02:47:09;5.40;99.90
24146;DHT22;12308;50.948;4.706;2022-11-20T02:49:35;5.40;99.90
24146;DHT22;12308;50.948;4.706;2022-11-20T02:52:01;5.50;99.90
24146;DHT22;12308;50.948;4.706;2022-11-20T02:54:26;5.50;99.90
24146;DHT22;12308;50.948;4.706;2022-11-20T02:56:52;5.60;99.90
24146;DHT22;12308;50.948;4.706;2022-11-20T02:59:18;5.50;99.90
24146;DHT22;12308;50.948;4.706;2022-11-20T03:01:44;5.40;99.90
24146;DHT22;12308;50.948;4.706;2022-11-20T03:04:09;5.40;99.90
24146;DHT22;12308;50.948;4.706;2022-11-20T03:06:35;5.40;99.90
24146;DHT22;12308;50.948;4.706;2022-11-20T03:09:01;5.40;99.90
24146;DHT22;12308;50.948;4.706;2022-11-20T03:11:26;5.20;99.90
24146;DHT22;12308;50.948;4.706;2022-11-20T03:13:52;5.20;99.90
24146;DHT22;12308;50.948;4.706;2022-11-20T03:16:22;5.20;99.90
24146;DHT22;12308;50.948;4.706;2022-11-20T03:18:49;5.30;99.90
24146;DHT22;12308;50.948;4.706;2022-11-20T03:21:15;5.30;99.90
24146;DHT22;12308;50.948;4.706;2022-11-20T03:23:42;5.40;99.90
24146;DHT22;12308;50.948;4.706;2022-11-20T03:26:17;5.60;99.90
24146;DHT22;12308;50.948;4.706;2022-11-20T03:28:49;5.50;99.90
24146;DHT22;12308;50.948;4.706;2022-11-20T03:31:17;5.60;99.90
24146;DHT22;12308;50.948;4.706;2022-11-20T03:33:43;5.70;99.90
24146;DHT22;12308;50.948;4.706;2022-11-20T03:36:12;5.60;99.90
24146;DHT22;12308;50.948;4.706;2022-11-20T03:38:38;5.60;99.90
24146;DHT22;12308;50.948;4.706;2022-11-20T03:41:09;5.70;99.90
24146;DHT22;12308;50.948;4.706;2022-11-20T03:43:35;5.70;99.90
24146;DHT22;12308;50.948;4.706;2022-11-20T03:46:01;5.70;99.90
24146;DHT22;12308;50.948;4.706;2022-11-20T03:48:27;5.70;99.90
24146;DHT22;12308;50.948;4.706;2022-11-20T03:51:06;5.60;99.90
24146;DHT22;12308;50.948;4.706;2022-11-20T03:53:32;5.60;99.90
24146;DHT22;12308;50.948;4.706;2022-11-20T03:55:58;5.70;99.90
24146;DHT22;12308;50.948;4.706;2022-11-20T03:58:23;5.70;99.90
24146;DHT22;12308;50.948;4.706;2022-11-20T04:00:49;5.60;99.90
24146;DHT22;12308;50.948;4.706;2022-11-20T04:03:15;5.70;99.90
24146;DHT22;12308;50.948;4.706;2022-11-20T04:05:40;5.70;99.90
24146;DHT22;12308;50.948;4.706;2022-11-20T04:08:06;5.70;99.90
24146;DHT22;12308;50.948;4.706;2022-11-20T04:10:31;5.70;99.90
24146;DHT22;12308;50.948;4.706;2022-11-20T04:12:57;5.90;99.90
24146;DHT22;12308;50.948;4.706;2022-11-20T04:15:23;6.00;99.90
24146;DHT22;12308;50.948;4.706;2022-11-20T04:17:48;6.20;99.90
24146;DHT22;12308;50.948;4.706;2022-11-20T04:20:14;6.10;99.90
24146;DHT22;12308;50.948;4.706;2022-11-20T04:22:40;5.70;99.90
24146;DHT22;12308;50.948;4.706;2022-11-20T04:25:05;5.80;99.90
24146;DHT22;12308;50.948;4.706;2022-11-20T04:27:31;5.90;99.90
24146;DHT22;12308;50.948;4.706;2022-11-20T04:29:57;6.00;99.90
24146;DHT22;12308;50.948;4.706;2022-11-20T04:32:22;5.90;99.90
24146;DHT22;12308;50.948;4.706;2022-11-20T04:34:48;5.80;99.90
24146;DHT22;12308;50.948;4.706;2022-11-20T04:37:14;5.60;99.90
24146;DHT22;12308;50.948;4.706;2022-11-20T04:39:39;5.50;99.90
24146;DHT22;12308;50.948;4.706;2022-11-20T04:42:05;5.50;99.90
24146;DHT22;12308;50.948;4.706;2022-11-20T04:44:49;5.60;99.90
24146;DHT22;12308;50.948;4.706;2022-11-20T04:47:14;5.50;99.90
24146;DHT22;12308;50.948;4.706;2022-11-20T04:49:40;5.50;99.90
24146;DHT22;12308;50.948;4.706;2022-11-20T04:52:06;5.50;99.90
24146;DHT22;12308;50.948;4.706;2022-11-20T04:54:31;5.50;99.90
24146;DHT22;12308;50.948;4.706;2022-11-20T04:56:57;5.40;99.90
24146;DHT22;12308;50.948;4.706;2022-11-20T04:59:23;5.30;99.90
24146;DHT22;12308;50.948;4.706;2022-11-20T05:01:48;5.30;99.90
24146;DHT22;12308;50.948;4.706;2022-11-20T05:04:14;5.20;99.90
24146;DHT22;12308;50.948;4.706;2022-11-20T05:06:40;5.20;99.90
24146;DHT22;12308;50.948;4.706;2022-11-20T05:09:06;5.10;99.90
24146;DHT22;12308;50.948;4.706;2022-11-20T05:11:32;5.10;99.90
24146;DHT22;12308;50.948;4.706;2022-11-20T05:13:58;5.10;99.90
24146;DHT22;12308;50.948;4.706;2022-11-20T05:16:25;5.20;99.90
24146;DHT22;12308;50.948;4.706;2022-11-20T05:18:52;5.20;99.90
24146;DHT22;12308;50.948;4.706;2022-11-20T05:21:18;5.20;99.90
24146;DHT22;12308;50.948;4.706;2022-11-20T05:23:45;5.20;99.90
24146;DHT22;12308;50.948;4.706;2022-11-20T05:26:19;5.20;99.90
24146;DHT22;12308;50.948;4.706;2022-11-20T05:28:47;5.30;99.90
24146;DHT22;12308;50.948;4.706;2022-11-20T05:31:15;5.30;99.90
24146;DHT22;12308;50.948;4.706;2022-11-20T05:33:43;5.20;99.90
24146;DHT22;12308;50.948;4.706;2022-11-20T05:36:09;5.30;99.90
24146;DHT22;12308;50.948;4.706;2022-11-20T05:38:35;5.30;99.90
24146;DHT22;12308;50.948;4.706;2022-11-20T05:41:12;5.40;99.90
24146;DHT22;12308;50.948;4.706;2022-11-20T05:43:40;5.40;99.90
24146;DHT22;12308;50.948;4.706;2022-11-20T05:46:07;5.50;99.90
24146;DHT22;12308;50.948;4.706;2022-11-20T05:48:34;5.60;99.90
24146;DHT22;12308;50.948;4.706;2022-11-20T05:51:02;5.60;99.90
24146;DHT22;12308;50.948;4.706;2022-11-20T05:53:29;5.60;99.90
24146;DHT22;12308;50.948;4.706;2022-11-20T05:56:05;5.50;99.90
24146;DHT22;12308;50.948;4.706;2022-11-20T05:58:32;5.60;99.90
24146;DHT22;12308;50.948;4.706;2022-11-20T06:01:07;5.70;99.90
24146;DHT22;12308;50.948;4.706;2022-11-20T06:03:33;5.70;99.90
24146;DHT22;12308;50.948;4.706;2022-11-20T06:06:00;5.80;99.90
24146;DHT22;12308;50.948;4.706;2022-11-20T06:08:26;5.70;99.90
24146;DHT22;12308;50.948;4.706;2022-11-20T06:10:52;5.70;99.90
24146;DHT22;12308;50.948;4.706;2022-11-20T06:13:18;5.60;99.90
24146;DHT22;12308;50.948;4.706;2022-11-20T06:15:50;5.60;99.90
24146;DHT22;12308;50.948;4.706;2022-11-20T06:18:16;5.70;99.90
24146;DHT22;12308;50.948;4.706;2022-11-20T06:20:42;5.70;99.90
24146;DHT22;12308;50.948;4.706;2022-11-20T06:23:08;5.60;99.90
24146;DHT22;12308;50.948;4.706;2022-11-20T06:25:37;5.50;99.90
24146;DHT22;12308;50.948;4.706;2022-11-20T06:28:03;5.50;99.90
24146;DHT22;12308;50.948;4.706;2022-11-20T06:30:29;5.40;99.90
24146;DHT22;12308;50.948;4.706;2022-11-20T06:32:55;5.50;99.90
24146;DHT22;12308;50.948;4.706;2022-11-20T06:35:20;5.50;99.90
24146;DHT22;12308;50.948;4.706;2022-11-20T06:37:46;5.50;99.90
24146;DHT22;12308;50.948;4.706;2022-11-20T06:40:12;5.40;99.90
24146;DHT22;12308;50.948;4.706;2022-11-20T06:42:38;5.30;99.90
24146;DHT22;12308;50.948;4.706;2022-11-20T06:45:03;5.50;99.90
24146;DHT22;12308;50.948;4.706;2022-11-20T06:47:29;5.50;99.90
24146;DHT22;12308;50.948;4.706;2022-11-20T06:49:55;5.60;99.90
24146;DHT22;12308;50.948;4.706;2022-11-20T06:52:21;5.70;99.90
24146;DHT22;12308;50.948;4.706;2022-11-20T06:54:47;5.70;99.90
24146;DHT22;12308;50.948;4.706;2022-11-20T06:57:12;5.70;99.90
24146;DHT22;12308;50.948;4.706;2022-11-20T06:59:38;5.70;99.90
24146;DHT22;12308;50.948;4.706;2022-11-20T07:02:03;5.70;99.90
24146;DHT22;12308;50.948;4.706;2022-11-20T07:04:29;5.70;99.90
24146;DHT22;12308;50.948;4.706;2022-11-20T07:06:55;5.80;99.90
24146;DHT22;12308;50.948;4.706;2022-11-20T07:09:20;5.90;99.90
24146;DHT22;12308;50.948;4.706;2022-11-20T07:11:46;5.90;99.90
24146;DHT22;12308;50.948;4.706;2022-11-20T07:14:11;5.90;99.90
24146;DHT22;12308;50.948;4.706;2022-11-20T07:16:37;6.00;99.90
24146;DHT22;12308;50.948;4.706;2022-11-20T07:19:03;5.90;99.90
24146;DHT22;12308;50.948;4.706;2022-11-20T07:21:28;5.90;99.90
24146;DHT22;12308;50.948;4.706;2022-11-20T07:23:54;6.00;99.90
24146;DHT22;12308;50.948;4.706;2022-11-20T07:26:20;6.00;99.90
24146;DHT22;12308;50.948;4.706;2022-11-20T07:28:45;6.20;99.90
24146;DHT22;12308;50.948;4.706;2022-11-20T07:31:11;6.20;99.90
24146;DHT22;12308;50.948;4.706;2022-11-20T07:33:38;6.40;99.90
24146;DHT22;12308;50.948;4.706;2022-11-20T07:36:04;6.40;99.90
24146;DHT22;12308;50.948;4.706;2022-11-20T07:38:30;6.50;99.90
24146;DHT22;12308;50.948;4.706;2022-11-20T07:40:59;6.40;99.90
24146;DHT22;12308;50.948;4.706;2022-11-20T07:43:27;6.50;99.90
24146;DHT22;12308;50.948;4.706;2022-11-20T07:45:55;6.60;99.90
24146;DHT22;12308;50.948;4.706;2022-11-20T07:48:21;6.60;99.90
24146;DHT22;12308;50.948;4.706;2022-11-20T07:50:47;6.60;99.90
24146;DHT22;12308;50.948;4.706;2022-11-20T07:53:12;6.70;99.90
24146;DHT22;12308;50.948;4.706;2022-11-20T07:55:39;6.70;99.90
24146;DHT22;12308;50.948;4.706;2022-11-20T07:58:05;6.60;99.90
24146;DHT22;12308;50.948;4.706;2022-11-20T08:00:31;6.60;99.90
24146;DHT22;12308;50.948;4.706;2022-11-20T08:02:56;6.70;99.90
24146;DHT22;12308;50.948;4.706;2022-11-20T08:05:22;6.80;99.90
24146;DHT22;12308;50.948;4.706;2022-11-20T08:07:48;6.80;99.90
24146;DHT22;12308;50.948;4.706;2022-11-20T08:10:15;6.90;99.90
24146;DHT22;12308;50.948;4.706;2022-11-20T08:12:46;6.80;99.90
24146;DHT22;12308;50.948;4.706;2022-11-20T08:15:30;6.70;99.90
24146;DHT22;12308;50.948;4.706;2022-11-20T08:18:08;6.80;99.90
24146;DHT22;12308;50.948;4.706;2022-11-20T08:20:36;6.80;99.90
24146;DHT22;12308;50.948;4.706;2022-11-20T08:23:05;7.00;99.90
24146;DHT22;12308;50.948;4.706;2022-11-20T08:25:32;7.00;99.90
24146;DHT22;12308;50.948;4.706;2022-11-20T08:28:03;6.90;99.90
24146;DHT22;12308;50.948;4.706;2022-11-20T08:30:29;7.00;99.90
24146;DHT22;12308;50.948;4.706;2022-11-20T08:32:59;7.10;99.90
24146;DHT22;12308;50.948;4.706;2022-11-20T08:35:26;7.20;99.90
24146;DHT22;12308;50.948;4.706;2022-11-20T08:37:52;7.40;99.90
24146;DHT22;12308;50.948;4.706;2022-11-20T08:40:17;7.40;99.90
24146;DHT22;12308;50.948;4.706;2022-11-20T08:42:47;7.20;99.90
24146;DHT22;12308;50.948;4.706;2022-11-20T08:45:14;7.30;99.90
24146;DHT22;12308;50.948;4.706;2022-11-20T08:47:40;7.30;99.90
24146;DHT22;12308;50.948;4.706;2022-11-20T08:50:06;7.30;99.90
24146;DHT22;12308;50.948;4.706;2022-11-20T08:52:32;7.30;99.90
24146;DHT22;12308;50.948;4.706;2022-11-20T08:54:58;7.50;99.90
24146;DHT22;12308;50.948;4.706;2022-11-20T08:57:23;7.60;99.90
24146;DHT22;12308;50.948;4.706;2022-11-20T08:59:49;7.60;99.90
24146;DHT22;12308;50.948;4.706;2022-11-20T09:02:14;7.50;99.90
24146;DHT22;12308;50.948;4.706;2022-11-20T09:04:40;7.50;99.90
24146;DHT22;12308;50.948;4.706;2022-11-20T09:07:06;7.60;99.90
24146;DHT22;12308;50.948;4.706;2022-11-20T09:09:32;7.60;99.90
24146;DHT22;12308;50.948;4.706;2022-11-20T09:11:58;7.70;99.90
24146;DHT22;12308;50.948;4.706;2022-11-20T09:14:24;7.80;99.90
24146;DHT22;12308;50.948;4.706;2022-11-20T09:16:55;7.70;99.90
24146;DHT22;12308;50.948;4.706;2022-11-20T09:19:20;7.70;99.90
24146;DHT22;12308;50.948;4.706;2022-11-20T09:21:46;7.90;99.90
24146;DHT22;12308;50.948;4.706;2022-11-20T09:24:12;8.10;99.90
24146;DHT22;12308;50.948;4.706;2022-11-20T09:26:37;8.10;99.90
24146;DHT22;12308;50.948;4.706;2022-11-20T09:29:03;8.00;99.90
24146;DHT22;12308;50.948;4.706;2022-11-20T09:31:29;8.00;99.90
24146;DHT22;12308;50.948;4.706;2022-11-20T09:33:54;8.10;99.90
24146;DHT22;12308;50.948;4.706;2022-11-20T09:36:20;8.20;99.90
24146;DHT22;12308;50.948;4.706;2022-11-20T09:38:46;8.20;99.90
24146;DHT22;12308;50.948;4.706;2022-11-20T09:41:36;8.30;99.90
24146;DHT22;12308;50.948;4.706;2022-11-20T09:53:11;8.60;99.90
24146;DHT22;12308;50.948;4.706;2022-11-20T09:55:16;8.60;99.90
24146;DHT22;12308;50.948;4.706;2022-11-20T09:57:46;8.80;99.90
24146;DHT22;12308;50.948;4.706;2022-11-20T10:00:14;8.80;99.90
24146;DHT22;12308;50.948;4.706;2022-11-20T10:05:13;9.10;99.90
24146;DHT22;12308;50.948;4.706;2022-11-20T10:10:27;9.30;99.90
24146;DHT22;12308;50.948;4.706;2022-11-20T10:29:51;9.30;99.90
24146;DHT22;12308;50.948;4.706;2022-11-20T10:32:32;9.30;99.90
24146;DHT22;12308;50.948;4.706;2022-11-20T10:37:44;9.60;99.90
24146;DHT22;12308;50.948;4.706;2022-11-20T10:40:38;9.50;99.90
24146;DHT22;12308;50.948;4.706;2022-11-20T10:45:47;9.60;99.90
24146;DHT22;12308;50.948;4.706;2022-11-20T10:56:16;9.90;99.90
24146;DHT22;12308;50.948;4.706;2022-11-20T10:58:45;10.10;99.90
24146;DHT22;12308;50.948;4.706;2022-11-20T11:01:18;10.20;99.90
24146;DHT22;12308;50.948;4.706;2022-11-20T11:03:44;10.30;99.90
24146;DHT22;12308;50.948;4.706;2022-11-20T11:06:36;10.30;99.90
24146;DHT22;12308;50.948;4.706;2022-11-20T11:09:13;10.50;99.90
24146;DHT22;12308;50.948;4.706;2022-11-20T11:11:40;10.60;99.90
24146;DHT22;12308;50.948;4.706;2022-11-20T11:16:32;10.80;99.90
24146;DHT22;12308;50.948;4.706;2022-11-20T11:19:12;10.80;99.90
24146;DHT22;12308;50.948;4.706;2022-11-20T11:21:38;11.00;99.90
24146;DHT22;12308;50.948;4.706;2022-11-20T11:24:23;11.00;99.90
24146;DHT22;12308;50.948;4.706;2022-11-20T11:27:01;11.00;99.90
24146;DHT22;12308;50.948;4.706;2022-11-20T11:29:33;10.90;99.90
24146;DHT22;12308;50.948;4.706;2022-11-20T11:32:13;11.10;99.90
24146;DHT22;12308;50.948;4.706;2022-11-20T11:34:39;11.10;99.90
24146;DHT22;12308;50.948;4.706;2022-11-20T11:37:10;11.10;99.90
24146;DHT22;12308;50.948;4.706;2022-11-20T11:39:41;11.10;99.90
24146;DHT22;12308;50.948;4.706;2022-11-20T11:42:16;11.10;99.90
24146;DHT22;12308;50.948;4.706;2022-11-20T11:44:46;11.20;99.90
24146;DHT22;12308;50.948;4.706;2022-11-20T11:55:46;11.30;99.90
24146;DHT22;12308;50.948;4.706;2022-11-20T12:01:01;11.10;99.90
24146;DHT22;12308;50.948;4.706;2022-11-20T12:03:38;11.20;99.90
24146;DHT22;12308;50.948;4.706;2022-11-20T12:06:16;11.30;99.90
24146;DHT22;12308;50.948;4.706;2022-11-20T12:11:45;11.30;99.90
24146;DHT22;12308;50.948;4.706;2022-11-20T12:14:34;11.20;99.90
24146;DHT22;12308;50.948;4.706;2022-11-20T12:17:02;11.20;99.90
24146;DHT22;12308;50.948;4.706;2022-11-20T12:19:30;11.20;99.90
24146;DHT22;12308;50.948;4.706;2022-11-20T12:24:41;10.90;99.90
24146;DHT22;12308;50.948;4.706;2022-11-20T12:27:36;11.00;99.90
24146;DHT22;12308;50.948;4.706;2022-11-20T12:30:14;10.60;99.90
24146;DHT22;12308;50.948;4.706;2022-11-20T12:32:47;10.40;99.90
24146;DHT22;12308;50.948;4.706;2022-11-20T12:40:51;10.50;99.90
24146;DHT22;12308;50.948;4.706;2022-11-20T12:43:26;10.40;99.90
24146;DHT22;12308;50.948;4.706;2022-11-20T12:57:04;9.70;99.90
24146;DHT22;12308;50.948;4.706;2022-11-20T13:00:06;9.80;99.90
24146;DHT22;12308;50.948;4.706;2022-11-20T13:08:27;9.60;99.90
24146;DHT22;12308;50.948;4.706;2022-11-20T13:11:10;9.50;99.90
24146;DHT22;12308;50.948;4.706;2022-11-20T13:19:14;9.40;99.90
24146;DHT22;12308;50.948;4.706;2022-11-20T13:21:43;9.50;99.90
24146;DHT22;12308;50.948;4.706;2022-11-20T13:26:45;9.60;99.90
24146;DHT22;12308;50.948;4.706;2022-11-20T13:29:18;9.70;99.90
24146;DHT22;12308;50.948;4.706;2022-11-20T13:31:46;9.60;99.90
24146;DHT22;12308;50.948;4.706;2022-11-20T13:34:26;9.50;99.90
24146;DHT22;12308;50.948;4.706;2022-11-20T13:36:54;9.60;99.90
24146;DHT22;12308;50.948;4.706;2022-11-20T13:39:29;9.70;99.90
24146;DHT22;12308;50.948;4.706;2022-11-20T13:44:44;9.70;99.90
24146;DHT22;12308;50.948;4.706;2022-11-20T13:47:26;9.80;99.90
24146;DHT22;12308;50.948;4.706;2022-11-20T13:49:54;9.80;99.90
24146;DHT22;12308;50.948;4.706;2022-11-20T14:01:09;9.60;99.90
24146;DHT22;12308;50.948;4.706;2022-11-20T14:03:36;9.50;99.90
24146;DHT22;12308;50.948;4.706;2022-11-20T14:06:10;9.60;99.90
24146;DHT22;12308;50.948;4.706;2022-11-20T14:08:48;9.60;99.90
24146;DHT22;12308;50.948;4.706;2022-11-20T14:11:21;9.50;99.90
24146;DHT22;12308;50.948;4.706;2022-11-20T14:14:16;9.50;99.90
24146;DHT22;12308;50.948;4.706;2022-11-20T14:16:42;9.50;99.90
24146;DHT22;12308;50.948;4.706;2022-11-20T14:24:47;9.50;99.90
24146;DHT22;12308;50.948;4.706;2022-11-20T14:27:18;9.40;99.90
24146;DHT22;12308;50.948;4.706;2022-11-20T14:29:46;9.40;99.90
24146;DHT22;12308;50.948;4.706;2022-11-20T14:32:16;9.50;99.90
24146;DHT22;12308;50.948;4.706;2022-11-20T14:34:45;9.50;99.90
24146;DHT22;12308;50.948;4.706;2022-11-20T14:37:16;9.50;99.90
24146;DHT22;12308;50.948;4.706;2022-11-20T14:39:46;9.60;99.90
24146;DHT22;12308;50.948;4.706;2022-11-20T14:42:21;9.60;99.90
24146;DHT22;12308;50.948;4.706;2022-11-20T14:44:48;9.50;99.90
24146;DHT22;12308;50.948;4.706;2022-11-20T14:47:35;9.40;99.90
24146;DHT22;12308;50.948;4.706;2022-11-20T14:50:01;9.40;99.90
24146;DHT22;12308;50.948;4.706;2022-11-20T14:52:27;9.50;99.90
24146;DHT22;12308;50.948;4.706;2022-11-20T14:54:58;9.30;99.90
24146;DHT22;12308;50.948;4.706;2022-11-20T14:57:29;9.30;99.90
24146;DHT22;12308;50.948;4.706;2022-11-20T15:02:42;9.30;99.90
24146;DHT22;12308;50.948;4.706;2022-11-20T15:05:08;9.30;99.90
24146;DHT22;12308;50.948;4.706;2022-11-20T15:07:37;9.40;99.90
24146;DHT22;12308;50.948;4.706;2022-11-20T15:10:08;9.50;99.90
24146;DHT22;12308;50.948;4.706;2022-11-20T15:12:45;9.50;99.90
24146;DHT22;12308;50.948;4.706;2022-11-20T15:15:12;9.40;99.90
24146;DHT22;12308;50.948;4.706;2022-11-20T15:17:40;9.40;99.90
24146;DHT22;12308;50.948;4.706;2022-11-20T15:20:13;9.50;99.90
24146;DHT22;12308;50.948;4.706;2022-11-20T15:22:39;9.40;99.90
24146;DHT22;12308;50.948;4.706;2022-11-20T15:25:14;9.40;99.90
24146;DHT22;12308;50.948;4.706;2022-11-20T15:27:41;9.40;99.90
24146;DHT22;12308;50.948;4.706;2022-11-20T15:30:20;9.40;99.90
24146;DHT22;12308;50.948;4.706;2022-11-20T15:32:46;9.50;99.90
24146;DHT22;12308;50.948;4.706;2022-11-20T15:35:13;9.50;99.90
24146;DHT22;12308;50.948;4.706;2022-11-20T15:37:40;9.40;99.90
24146;DHT22;12308;50.948;4.706;2022-11-20T15:40:06;9.40;99.90
24146;DHT22;12308;50.948;4.706;2022-11-20T15:42:33;9.50;99.90
24146;DHT22;12308;50.948;4.706;2022-11-20T15:44:59;9.40;99.90
24146;DHT22;12308;50.948;4.706;2022-11-20T15:47:28;9.40;99.90
24146;DHT22;12308;50.948;4.706;2022-11-20T15:49:55;9.30;99.90
24146;DHT22;12308;50.948;4.706;2022-11-20T15:52:21;9.30;99.90
24146;DHT22;12308;50.948;4.706;2022-11-20T15:54:46;9.40;99.90
24146;DHT22;12308;50.948;4.706;2022-11-20T15:57:12;9.40;99.90
24146;DHT22;12308;50.948;4.706;2022-11-20T15:59:38;9.40;99.90
24146;DHT22;12308;50.948;4.706;2022-11-20T16:02:11;9.50;99.90
24146;DHT22;12308;50.948;4.706;2022-11-20T16:04:37;9.60;99.90
24146;DHT22;12308;50.948;4.706;2022-11-20T16:07:03;9.50;99.90
24146;DHT22;12308;50.948;4.706;2022-11-20T16:09:29;9.50;99.90
24146;DHT22;12308;50.948;4.706;2022-11-20T16:11:54;9.50;99.90
24146;DHT22;12308;50.948;4.706;2022-11-20T16:14:20;9.40;99.90
24146;DHT22;12308;50.948;4.706;2022-11-20T16:17:04;9.40;99.90
24146;DHT22;12308;50.948;4.706;2022-11-20T16:19:30;9.30;99.90
24146;DHT22;12308;50.948;4.706;2022-11-20T16:21:57;9.20;99.90
24146;DHT22;12308;50.948;4.706;2022-11-20T16:24:23;9.30;99.90
24146;DHT22;12308;50.948;4.706;2022-11-20T16:26:49;9.30;99.90
24146;DHT22;12308;50.948;4.706;2022-11-20T16:29:14;9.40;99.90
24146;DHT22;12308;50.948;4.706;2022-11-20T16:31:40;9.40;99.90
24146;DHT22;12308;50.948;4.706;2022-11-20T16:34:07;9.30;99.90
24146;DHT22;12308;50.948;4.706;2022-11-20T16:36:32;9.30;99.90
24146;DHT22;12308;50.948;4.706;2022-11-20T16:39:00;9.30;99.90
24146;DHT22;12308;50.948;4.706;2022-11-20T16:41:28;9.40;99.90
24146;DHT22;12308;50.948;4.706;2022-11-20T16:43:56;9.40;99.90
24146;DHT22;12308;50.948;4.706;2022-11-20T16:46:30;9.30;99.90
24146;DHT22;12308;50.948;4.706;2022-11-20T16:49:08;9.30;99.90
24146;DHT22;12308;50.948;4.706;2022-11-20T16:51:36;9.30;99.90
24146;DHT22;12308;50.948;4.706;2022-11-20T16:54:06;9.20;99.90
24146;DHT22;12308;50.948;4.706;2022-11-20T16:56:32;9.30;99.90
24146;DHT22;12308;50.948;4.706;2022-11-20T16:58:59;9.40;99.90
24146;DHT22;12308;50.948;4.706;2022-11-20T17:01:26;9.40;99.90
24146;DHT22;12308;50.948;4.706;2022-11-20T17:04:03;9.40;99.90
24146;DHT22;12308;50.948;4.706;2022-11-20T17:06:34;9.50;99.90
24146;DHT22;12308;50.948;4.706;2022-11-20T17:09:00;9.50;99.90
24146;DHT22;12308;50.948;4.706;2022-11-20T17:11:27;9.60;99.90
24146;DHT22;12308;50.948;4.706;2022-11-20T17:13:57;9.60;99.90
24146;DHT22;12308;50.948;4.706;2022-11-20T17:16:27;9.60;99.90
24146;DHT22;12308;50.948;4.706;2022-11-20T17:18:56;9.70;99.90
24146;DHT22;12308;50.948;4.706;2022-11-20T17:21:22;9.70;99.90
24146;DHT22;12308;50.948;4.706;2022-11-20T17:23:48;9.60;99.90
24146;DHT22;12308;50.948;4.706;2022-11-20T17:26:16;9.60;99.90
24146;DHT22;12308;50.948;4.706;2022-11-20T17:28:43;9.60;99.90
24146;DHT22;12308;50.948;4.706;2022-11-20T17:31:12;9.50;99.90
24146;DHT22;12308;50.948;4.706;2022-11-20T17:33:40;9.40;99.90
24146;DHT22;12308;50.948;4.706;2022-11-20T17:36:07;9.30;99.90
24146;DHT22;12308;50.948;4.706;2022-11-20T17:38:34;9.30;99.90
24146;DHT22;12308;50.948;4.706;2022-11-20T17:41:04;9.20;99.90
24146;DHT22;12308;50.948;4.706;2022-11-20T17:43:31;9.10;99.90
24146;DHT22;12308;50.948;4.706;2022-11-20T17:45:57;9.10;99.90
24146;DHT22;12308;50.948;4.706;2022-11-20T17:48:23;9.10;99.90
24146;DHT22;12308;50.948;4.706;2022-11-20T17:50:49;8.90;99.90
24146;DHT22;12308;50.948;4.706;2022-11-20T17:53:14;9.00;99.90
24146;DHT22;12308;50.948;4.706;2022-11-20T17:55:40;8.90;99.90
24146;DHT22;12308;50.948;4.706;2022-11-20T17:58:28;8.90;99.90
24146;DHT22;12308;50.948;4.706;2022-11-20T18:00:54;8.80;99.90